Time;durP1;ratioP1;P1;durP2;ratioP2;P2;SDS_P1;SDS_P2;PMS_P1;PMS_P2;Temp;Humidity;BMP_temperature;BMP_pressure;BME280_temperature;BME280_humidity;BME280_pressure;Samples;Min_cycle;Max_cycle;Signal;HPM_P1;HPM_P2
2022/08/11 00:01:53;;;;;;;4.57;2.53;;;;;;;20.09;63.33;102370.03;4988667;28;20034;-74
2022/08/11 00:04:22;;;;;;;2.75;2.17;;;;;;;20.01;64.11;102380.53;4988015;28;20062;-73
2022/08/11 00:06:48;;;;;;;7.57;2.63;;;;;;;19.97;64.06;102373.69;4991467;28;20030;-74
2022/08/11 00:09:20;;;;;;;10.00;2.30;;;;;;;19.93;64.10;102372.44;4989572;28;20093;-73
2022/08/11 00:11:50;;;;;;;5.93;2.38;;;;;;;19.86;64.51;102379.97;4988825;28;20088;-74
2022/08/11 00:14:45;;;;;;;4.63;2.63;;;;;;;19.83;64.35;102374.81;4990602;28;20045;-73
2022/08/11 00:17:14;;;;;;;3.88;2.58;;;;;;;19.85;64.85;102370.75;4993726;28;20046;-73
2022/08/11 00:19:44;;;;;;;6.68;2.70;;;;;;;19.84;64.39;102369.03;4986596;28;20092;-73
2022/08/11 00:22:10;;;;;;;6.00;2.78;;;;;;;19.71;65.14;102374.69;4990174;28;20093;-74
2022/08/11 00:24:39;;;;;;;6.00;2.72;;;;;;;19.74;64.41;102374.22;4987755;28;20478;-74
2022/08/11 00:27:05;;;;;;;5.18;2.58;;;;;;;19.69;64.47;102373.19;4971063;28;20045;-73
2022/08/11 00:29:32;;;;;;;5.53;2.70;;;;;;;19.72;64.13;102372.72;4987751;28;20046;-73
2022/08/11 00:32:00;;;;;;;;;;;;;;;19.63;64.44;102374.91;4988950;28;20031;-73
2022/08/11 00:34:27;;;;;;;6.25;2.53;;;;;;;19.63;64.53;102371.28;4995576;28;19928;-74
2022/08/11 00:37:02;;;;;;;4.35;2.60;;;;;;;19.59;64.18;102367.22;4989515;28;20405;-74
2022/08/11 00:39:31;;;;;;;2.78;2.40;;;;;;;19.58;64.42;102365.53;4986493;28;20154;-74
2022/08/11 00:42:25;;;;;;;4.78;2.60;;;;;;;19.54;64.27;102373.44;4990661;28;20098;-74
2022/08/11 00:45:09;;;;;;;4.75;2.38;;;;;;;19.49;64.21;102370.47;4989321;28;20038;-74
2022/08/11 00:47:56;;;;;;;6.22;2.75;;;;;;;19.49;64.43;102370.47;4969876;28;20071;-75
2022/08/11 00:50:44;;;;;;;9.05;2.80;;;;;;;19.48;64.36;102365.13;4978991;28;20034;-72
2022/08/11 00:53:45;;;;;;;12.30;2.80;;;;;;;19.45;64.77;102373.91;4971685;28;20035;-74
2022/08/11 00:56:26;;;;;;;5.28;3.20;;;;;;;19.47;64.26;102371.78;4988774;28;20547;-73
2022/08/11 00:58:57;;;;;;;8.38;2.88;;;;;;;19.45;64.34;102368.34;4988607;28;20090;-75
2022/08/11 01:01:37;;;;;;;9.15;2.70;;;;;;;19.39;64.80;102372.84;4990190;28;20065;-74
2022/08/11 01:04:14;;;;;;;3.75;2.72;;;;;;;19.33;64.24;102370.94;4989748;28;20324;-73
2022/08/11 01:06:49;;;;;;;6.60;2.88;;;;;;;19.40;64.46;102376.47;4991609;28;20308;-74
2022/08/11 01:09:32;;;;;;;3.78;2.67;;;;;;;19.29;65.00;102371.59;4976900;28;20459;-74
2022/08/11 01:12:19;;;;;;;3.17;2.70;;;;;;;19.25;64.96;102379.50;4989170;28;20026;-74
2022/08/11 01:15:18;;;;;;;7.05;2.80;;;;;;;19.18;65.49;102373.09;4984979;28;20042;-74
2022/08/11 01:18:17;;;;;;;4.28;2.78;;;;;;;19.21;65.38;102367.09;4989977;28;20062;-74
2022/08/11 01:20:58;;;;;;;3.95;2.80;;;;;;;19.20;65.44;102364.53;4990227;28;20034;-74
2022/08/11 01:23:35;;;;;;;7.75;2.25;;;;;;;19.16;65.07;102369.66;4988778;28;20031;-74
2022/08/11 01:26:40;;;;;;;3.75;2.80;;;;;;;19.06;65.45;102368.41;4988661;28;20042;-74
2022/08/11 01:29:34;;;;;;;6.75;2.25;;;;;;;19.07;65.56;102370.09;4987257;28;22008;-75
2022/08/11 01:32:21;;;;;;;4.13;2.58;;;;;;;19.04;65.27;102365.81;4977247;28;20054;-74
2022/08/11 01:35:11;;;;;;;4.72;2.67;;;;;;;18.98;65.60;102361.13;5001548;28;20053;-73
2022/08/11 01:38:10;;;;;;;5.68;2.83;;;;;;;19.01;64.96;102359.84;4989318;28;20038;-73
2022/08/11 01:41:07;;;;;;;5.15;2.70;;;;;;;19.01;65.11;102357.94;4989551;28;20031;-73
2022/08/11 01:47:05;;;;;;;4.30;2.40;;;;;;;18.93;65.31;102360.06;4992731;28;20680;-73
2022/08/11 01:49:42;;;;;;;5.07;2.90;;;;;;;18.85;64.93;102361.16;4990876;28;20511;-72
2022/08/11 01:52:25;;;;;;;3.97;2.83;;;;;;;18.82;65.25;102369.03;4989819;28;20042;-73
2022/08/11 01:55:13;;;;;;;3.83;2.70;;;;;;;18.84;65.28;102361.38;4992194;28;20426;-74
2022/08/11 01:57:52;;;;;;;3.55;2.80;;;;;;;18.82;65.01;102371.81;4992476;28;20050;-73
2022/08/11 02:00:21;;;;;;;5.20;2.80;;;;;;;18.78;65.41;102367.78;4989300;28;20045;-73
2022/08/11 02:02:57;;;;;;;7.00;2.45;;;;;;;18.74;65.27;102372.03;4992244;28;20034;-72
2022/08/11 02:05:47;;;;;;;9.15;2.78;;;;;;;18.71;65.20;102369.69;4974411;28;20053;-75
2022/08/11 02:08:26;;;;;;;7.20;3.53;;;;;;;18.79;64.77;102369.47;4991550;28;20026;-74
2022/08/11 02:13:57;;;;;;;6.22;3.00;;;;;;;18.68;64.92;102364.56;4990940;28;20129;-73
2022/08/11 02:16:53;;;;;;;7.95;3.20;;;;;;;18.55;65.35;102353.44;4991190;28;20062;-73
2022/08/11 02:25:01;;;;;;;8.18;3.67;;;;;;;18.57;65.27;102354.09;4992429;28;20089;-73
2022/08/11 02:27:37;;;;;;;3.67;2.58;;;;;;;18.51;65.45;102350.25;4989402;28;20042;-74
2022/08/11 02:30:15;;;;;;;3.83;3.20;;;;;;;18.55;65.25;102340.44;4987507;28;20045;-72
2022/08/11 02:36:07;;;;;;;8.00;3.00;;;;;;;18.45;65.38;102347.47;4991559;28;20036;-72
2022/08/11 02:39:01;;;;;;;6.30;3.05;;;;;;;18.37;66.01;102350.47;4985843;28;20049;-74
2022/08/11 02:44:43;;;;;;;4.00;2.90;;;;;;;18.37;65.85;102348.56;4982805;28;20088;-74
2022/08/11 02:47:37;;;;;;;5.80;3.40;;;;;;;18.31;65.92;102345.72;4989336;28;20030;-74
2022/08/11 02:50:19;;;;;;;9.13;3.38;;;;;;;18.23;66.62;102338.44;4991569;28;20033;-72
2022/08/11 02:52:57;;;;;;;4.72;3.08;;;;;;;18.26;66.42;102339.94;4987381;28;20492;-73
2022/08/11 02:55:31;;;;;;;5.35;3.22;;;;;;;18.07;67.06;102344.41;4990692;28;20449;-73
2022/08/11 02:58:09;;;;;;;4.82;3.20;;;;;;;18.02;67.23;102343.28;4981681;28;20026;-73
2022/08/11 03:00:49;;;;;;;;;;;;;;;18.01;67.37;102339.69;4989612;28;20058;-73
2022/08/11 03:03:36;;;;;;;4.68;2.75;;;;;;;17.99;67.45;102338.19;4987272;28;19918;-72
2022/08/11 03:06:18;;;;;;;5.15;2.85;;;;;;;18.04;67.29;102338.41;4987821;28;20049;-73
2022/08/11 03:08:57;;;;;;;6.95;3.05;;;;;;;17.92;67.53;102335.38;4988100;28;20129;-73
2022/08/11 03:18:11;;;;;;;5.93;3.25;;;;;;;18.04;67.15;102341.19;4987521;28;20084;-73
2022/08/11 03:20:55;;;;;;;6.05;3.40;;;;;;;18.03;66.39;102340.31;4989973;28;20038;-73
2022/08/11 03:23:40;;;;;;;4.30;3.17;;;;;;;17.95;67.23;102339.66;4987957;28;20386;-73
2022/08/11 03:26:32;;;;;;;9.90;2.95;;;;;;;17.91;67.47;102332.81;4989048;28;20085;-73
2022/08/11 03:29:19;;;;;;;4.20;3.20;;;;;;;17.92;67.27;102334.56;4989059;28;20042;-73
2022/08/11 03:31:55;;;;;;;3.95;3.20;;;;;;;17.90;67.21;102337.53;4982440;28;20437;-72
2022/08/11 03:34:25;;;;;;;3.47;3.15;;;;;;;17.85;67.09;102336.44;4989493;28;20050;-73
2022/08/11 03:43:50;;;;;;;4.72;3.30;;;;;;;17.86;67.44;102338.13;4948945;28;20090;-74
2022/08/11 03:46:26;;;;;;;4.40;3.20;;;;;;;17.83;67.60;102336.63;4977840;28;20412;-74
2022/08/11 03:49:19;;;;;;;7.90;3.60;;;;;;;17.75;68.05;102330.41;4988319;28;20038;-74
2022/08/11 03:51:56;;;;;;;7.18;3.50;;;;;;;17.75;67.50;102334.06;4988652;28;20053;-73
2022/08/11 03:55:03;;;;;;;5.45;3.15;;;;;;;17.70;68.14;102335.72;4990754;28;20085;-74
2022/08/11 03:57:48;;;;;;;3.40;2.97;;;;;;;17.58;68.81;102329.09;4981188;28;20069;-74
2022/08/11 04:00:46;;;;;;;7.53;3.30;;;;;;;17.51;68.94;102337.34;4990607;28;20026;-73
2022/08/11 04:03:42;;;;;;;7.95;3.50;;;;;;;17.53;68.99;102328.84;4986877;28;20053;-74
2022/08/11 04:06:35;;;;;;;6.85;4.47;;;;;;;17.55;68.59;102326.75;4993799;28;20045;-73
2022/08/11 04:09:15;;;;;;;8.32;4.05;;;;;;;17.36;69.40;102324.69;4985814;28;20042;-73
2022/08/11 04:11:47;;;;;;;8.55;3.90;;;;;;;17.30;69.06;102325.50;4982714;28;20034;-74
2022/08/11 04:17:49;;;;;;;7.50;3.63;;;;;;;17.25;70.02;102333.56;4986133;28;20104;-75
2022/08/11 04:20:37;;;;;;;5.82;3.90;;;;;;;17.28;69.62;102331.25;4985568;28;20394;-75
2022/08/11 04:23:25;;;;;;;5.97;3.58;;;;;;;17.22;69.63;102323.75;4985826;28;20426;-73
2022/08/11 04:26:12;;;;;;;6.72;3.20;;;;;;;17.26;69.53;102327.84;4984318;28;20093;-73
2022/08/11 04:29:04;;;;;;;5.43;3.60;;;;;;;17.24;69.49;102331.88;4986576;28;20038;-72
2022/08/11 04:31:42;;;;;;;7.07;3.60;;;;;;;17.17;69.95;102323.53;4986739;28;20053;-75
2022/08/11 04:34:32;;;;;;;9.05;3.60;;;;;;;17.15;70.49;102327.56;4990140;28;20454;-75
2022/08/11 04:40:01;;;;;;;8.60;3.75;;;;;;;17.24;70.03;102326.34;4987729;28;20448;-74
2022/08/11 04:43:20;;;;;;;13.35;4.18;;;;;;;17.10;70.37;102327.31;4985395;28;20038;-75
2022/08/11 04:46:05;;;;;;;6.85;3.65;;;;;;;17.07;70.66;102323.03;4987660;28;20351;-74
2022/08/11 05:01:40;;;;;;;13.55;4.05;;;;;;;17.05;71.30;102324.28;4989309;28;20045;-74
2022/08/11 05:07:12;;;;;;;7.45;4.20;;;;;;;17.09;71.46;102329.25;4983703;28;20077;-74
2022/08/11 05:10:10;;;;;;;4.63;3.72;;;;;;;17.08;71.53;102335.81;4991541;28;20030;-73
2022/08/11 05:12:44;;;;;;;8.05;3.70;;;;;;;17.12;71.58;102339.06;4985469;28;20030;-73
2022/08/11 05:35:35;;;;;;;13.10;4.90;;;;;;;17.66;70.15;102323.38;4987575;28;20089;-74
2022/08/11 05:57:31;;;;;;;7.85;4.80;;;;;;;18.24;68.98;102344.88;4987106;28;20393;-73
2022/08/11 06:00:09;;;;;;;9.40;4.63;;;;;;;18.36;68.33;102348.75;4990305;28;20030;-73
2022/08/11 06:02:39;;;;;;;17.58;5.05;;;;;;;18.45;68.66;102341.91;4985759;28;20022;-73
2022/08/11 06:05:05;;;;;;;7.55;4.63;;;;;;;18.57;67.59;102340.22;4986263;28;20038;-74
2022/08/11 06:07:31;;;;;;;5.23;4.73;;;;;;;18.65;67.42;102337.22;4985317;28;20045;-73
2022/08/11 06:09:59;;;;;;;9.00;5.00;;;;;;;18.86;65.81;102345.34;4988424;28;20113;-74
2022/08/11 06:12:34;;;;;;;19.00;4.68;;;;;;;18.97;64.94;102341.91;4988711;28;20027;-73
2022/08/11 06:15:09;;;;;;;13.05;4.30;;;;;;;19.12;65.11;102345.31;4989170;28;20042;-74
2022/08/11 06:17:44;;;;;;;5.28;4.35;;;;;;;19.16;64.40;102332.69;4989758;28;20046;-73
2022/08/11 06:20:11;;;;;;;11.35;4.65;;;;;;;19.17;64.63;102337.19;4988037;28;20446;-73
2022/08/11 06:22:40;;;;;;;7.03;4.15;;;;;;;19.25;64.58;102343.38;4986935;28;20030;-73
2022/08/11 06:25:07;;;;;;;7.13;4.30;;;;;;;19.24;64.62;102346.38;4989627;28;20066;-73
2022/08/11 06:27:35;;;;;;;11.57;4.60;;;;;;;19.37;63.79;102343.56;4990922;28;20434;-73
2022/08/11 06:30:12;;;;;;;7.93;5.13;;;;;;;19.68;63.13;102343.69;4989890;28;20030;-74
2022/08/11 06:32:40;;;;;;;9.03;4.70;;;;;;;21.39;58.00;102346.66;4989207;28;20354;-73
2022/08/11 06:35:30;;;;;;;7.85;4.57;;;;;;;22.56;53.45;102347.03;4988636;28;20948;-73
2022/08/11 06:38:01;;;;;;;9.48;4.43;;;;;;;23.66;51.73;102349.72;4985461;28;20480;-72
2022/08/11 06:41:28;;;;;;;13.38;4.55;;;;;;;24.25;50.80;102349.31;4990626;28;20034;-73
2022/08/11 06:43:44;;;;;;;16.33;4.55;;;;;;;25.23;47.79;102336.47;4988679;28;20058;-72
2022/08/11 06:46:11;;;;;;;8.95;4.88;;;;;;;25.29;47.76;102347.53;4990940;28;20098;-73
2022/08/11 06:48:39;;;;;;;7.57;4.60;;;;;;;25.60;47.04;102337.59;4989133;28;20133;-73
2022/08/11 06:51:13;;;;;;;12.57;4.70;;;;;;;25.76;46.93;102339.50;4991221;28;20454;-73
2022/08/11 06:53:41;;;;;;;7.97;4.15;;;;;;;25.99;46.33;102353.28;4985643;28;20023;-73
2022/08/11 07:02:11;;;;;;;16.38;5.32;;;;;;;26.45;45.30;102352.66;4985241;28;20111;-72
2022/08/11 07:04:42;;;;;;;8.38;4.45;;;;;;;26.65;45.29;102355.72;4981168;28;20035;-73
2022/08/11 07:16:33;;;;;;;6.07;4.15;;;;;;;26.62;45.17;102347.84;4987211;28;20187;-74
2022/08/11 07:30:46;;;;;;;12.15;4.18;;;;;;;26.78;45.34;102358.09;4989695;28;20085;-72
2022/08/11 07:33:16;;;;;;;;;;;;;;;27.08;44.63;102352.72;4986579;28;20022;-72
2022/08/11 07:35:47;;;;;;;12.00;4.95;;;;;;;27.01;43.98;102358.59;4987225;28;20530;-73
2022/08/11 07:38:20;;;;;;;10.73;4.63;;;;;;;27.02;44.74;102349.03;4988235;28;20046;-73
2022/08/11 07:40:46;;;;;;;7.32;4.93;;;;;;;27.09;44.66;102348.78;4989037;28;20085;-73
2022/08/11 07:43:12;;;;;;;7.53;4.38;;;;;;;26.66;44.08;102358.28;4987080;28;20022;-72
2022/08/11 07:54:05;;;;;;;6.00;4.45;;;;;;;26.68;44.39;102344.78;4989297;28;22173;-73
2022/08/11 07:56:35;;;;;;;5.80;3.85;;;;;;;26.58;44.68;102341.03;4986691;28;20034;-73
2022/08/11 08:18:22;;;;;;;11.25;4.47;;;;;;;26.27;46.34;102351.09;4989964;28;20057;-73
2022/08/11 08:20:49;;;;;;;11.77;4.43;;;;;;;26.43;45.77;102349.28;4984843;28;20026;-72
2022/08/11 08:23:16;;;;;;;11.60;5.40;;;;;;;25.88;46.21;102352.28;4984101;28;20564;-73
2022/08/11 08:25:43;;;;;;;7.78;4.40;;;;;;;25.90;46.71;102355.69;4985322;28;20105;-73
2022/08/11 08:28:19;;;;;;;10.95;3.50;;;;;;;26.35;46.03;102353.41;4981392;28;20030;-73
2022/08/11 08:30:51;;;;;;;6.32;3.55;;;;;;;26.22;44.79;102342.63;4985150;28;20054;-73
2022/08/11 08:33:16;;;;;;;10.10;2.90;;;;;;;26.73;45.10;102352.44;4984862;28;20114;-73
2022/08/11 08:35:44;;;;;;;9.67;3.50;;;;;;;26.61;45.33;102351.72;4983286;28;20185;-72
2022/08/11 08:38:10;;;;;;;11.07;3.40;;;;;;;26.82;44.65;102357.28;4984473;28;20041;-72
2022/08/11 08:40:39;;;;;;;8.18;3.03;;;;;;;26.85;44.72;102355.91;4983525;28;20041;-73
2022/08/11 08:43:09;;;;;;;4.78;3.25;;;;;;;27.07;44.29;102348.19;4984027;28;20030;-73
2022/08/11 08:45:36;;;;;;;9.18;2.78;;;;;;;27.20;42.04;102344.97;4984171;28;22035;-73
2022/08/11 08:48:07;;;;;;;6.10;2.58;;;;;;;27.30;41.92;102342.19;4986709;28;20038;-73
2022/08/11 08:53:28;;;;;;;3.83;2.72;;;;;;;27.38;40.25;102347.34;4987165;28;20508;-73
2022/08/11 08:55:55;;;;;;;10.35;3.17;;;;;;;27.33;39.55;102347.31;4985097;28;20030;-72
2022/08/11 08:58:22;;;;;;;4.45;2.88;;;;;;;27.19;39.44;102346.06;4986750;28;20491;-73
2022/08/11 09:00:51;;;;;;;14.85;2.97;;;;;;;27.28;39.82;102348.13;4985688;28;20624;-74
2022/08/11 09:03:18;;;;;;;11.70;2.70;;;;;;;27.52;39.86;102345.75;4985948;28;20125;-73
2022/08/11 09:05:45;;;;;;;4.95;2.58;;;;;;;27.61;38.89;102347.75;4987726;28;20165;-72
2022/08/11 09:08:11;;;;;;;4.80;3.00;;;;;;;27.96;38.76;102347.09;4983041;28;20038;-73
2022/08/11 09:10:37;;;;;;;11.20;3.03;;;;;;;27.98;40.10;102344.84;4987182;28;20025;-73
2022/08/11 09:13:05;;;;;;;11.27;2.80;;;;;;;28.06;40.09;102338.69;4981261;28;20117;-73
2022/08/11 09:15:32;;;;;;;11.77;2.65;;;;;;;28.19;40.60;102338.16;4983685;28;20121;-73
2022/08/11 09:18:05;;;;;;;10.13;3.03;;;;;;;28.41;40.22;102336.81;4990598;28;20455;-73
2022/08/11 09:20:36;;;;;;;9.57;2.95;;;;;;;28.54;39.40;102335.44;4987131;28;20062;-73
2022/08/11 09:28:36;;;;;;;6.65;2.80;;;;;;;28.56;38.44;102333.16;4988420;28;20124;-73
2022/08/11 09:31:02;;;;;;;10.50;2.80;;;;;;;28.83;37.75;102330.94;4988022;28;20034;-72
2022/08/11 09:33:30;;;;;;;6.60;3.05;;;;;;;29.03;37.01;102322.50;4988298;28;20049;-73
2022/08/11 09:35:56;;;;;;;8.68;3.03;;;;;;;28.95;35.29;102328.66;4986620;28;20031;-73
2022/08/11 09:41:10;;;;;;;5.93;2.40;;;;;;;29.13;35.91;102322.47;4987749;28;20548;-72
2022/08/11 09:46:27;;;;;;;12.48;2.38;;;;;;;29.42;34.42;102310.25;4986548;28;20093;-74
2022/08/11 09:48:55;;;;;;;11.27;2.42;;;;;;;29.69;34.90;102310.75;4989345;28;20242;-75
2022/08/11 09:51:21;;;;;;;7.28;2.65;;;;;;;29.68;33.97;102306.25;4981115;28;20390;-73
2022/08/11 09:53:48;;;;;;;8.10;2.22;;;;;;;29.91;32.85;102307.53;4988750;28;20080;-72
2022/08/11 09:59:03;;;;;;;2.28;2.08;;;;;;;30.18;33.99;102308.84;4985227;28;20336;-72
2022/08/11 10:01:40;;;;;;;3.85;2.35;;;;;;;30.34;33.31;102307.59;4984428;28;20030;-72
2022/08/11 10:04:14;;;;;;;9.52;2.85;;;;;;;30.48;33.04;102304.94;4988798;28;20049;-72
2022/08/11 10:09:33;;;;;;;5.18;2.50;;;;;;;30.41;31.66;102307.28;4989534;28;20085;-73
2022/08/11 10:12:01;;;;;;;8.02;2.30;;;;;;;30.83;32.46;102302.69;4984917;28;20038;-72
2022/08/11 10:17:17;;;;;;;11.45;2.72;;;;;;;30.61;30.79;102295.78;4983030;28;20532;-72
2022/08/11 10:19:46;;;;;;;6.57;1.90;;;;;;;31.02;30.70;102288.66;4985782;28;20044;-71
2022/08/11 10:27:43;;;;;;;11.52;2.90;;;;;;;31.06;29.14;102293.41;4982881;28;20088;-73
2022/08/11 10:35:41;;;;;;;3.55;2.22;;;;;;;31.00;28.91;102282.44;4987693;28;20038;-72
2022/08/11 10:38:06;;;;;;;6.57;2.10;;;;;;;31.39;28.28;102281.19;4987707;28;20034;-74
2022/08/11 10:40:32;;;;;;;;;;;;;;;31.59;28.17;102280.94;4989395;28;20034;-73
2022/08/11 10:43:02;;;;;;;8.95;2.15;;;;;;;31.28;26.89;102281.59;4986591;28;19918;-73
2022/08/11 10:48:22;;;;;;;2.47;1.88;;;;;;;31.25;26.21;102285.88;4986841;28;20032;-74
2022/08/11 10:59:09;;;;;;;5.53;1.85;;;;;;;31.93;26.27;102267.47;4988453;28;20096;-73
2022/08/11 11:01:41;;;;;;;3.42;2.08;;;;;;;32.05;26.72;102270.69;4985151;28;21932;-73
2022/08/11 11:04:12;;;;;;;4.38;1.80;;;;;;;31.89;25.47;102276.88;4988016;28;20572;-74
2022/08/11 11:06:56;;;;;;;10.30;1.70;;;;;;;31.85;26.02;102267.31;4982873;28;20392;-73
2022/08/11 11:09:31;;;;;;;6.15;2.28;;;;;;;31.85;26.25;102267.31;4984999;28;20034;-74
2022/08/11 11:17:55;;;;;;;5.53;1.88;;;;;;;32.12;26.07;102271.16;4987151;28;20118;-73
2022/08/11 11:20:25;;;;;;;5.43;1.73;;;;;;;31.94;25.67;102259.78;4985489;28;20037;-74
2022/08/11 11:22:55;;;;;;;2.70;1.90;;;;;;;32.06;25.91;102268.72;4987889;28;20030;-73
2022/08/11 11:26:05;;;;;;;4.15;2.33;;;;;;;31.91;25.96;102266.91;4985956;28;20061;-73
2022/08/11 11:28:47;;;;;;;4.45;1.88;;;;;;;31.83;26.01;102264.78;4988304;28;20090;-73
2022/08/11 11:31:26;;;;;;;2.60;2.00;;;;;;;32.28;25.74;102260.47;4985138;28;20192;-74
2022/08/11 11:34:09;;;;;;;5.25;1.60;;;;;;;31.99;25.09;102271.06;4986146;28;20026;-73
2022/08/11 11:36:44;;;;;;;3.42;1.90;;;;;;;32.46;24.02;102273.78;4984499;28;20105;-73
2022/08/11 11:39:10;;;;;;;4.88;2.15;;;;;;;32.52;23.75;102267.72;4984135;28;20523;-74
2022/08/11 11:41:36;;;;;;;9.18;2.17;;;;;;;32.71;23.27;102259.16;4998715;28;20350;-74
2022/08/11 11:44:02;;;;;;;;;;;;;;;32.82;23.79;102255.84;4979067;28;20033;-73
2022/08/11 11:46:29;;;;;;;4.43;1.75;;;;;;;33.06;24.49;102247.16;4980923;28;20025;-73
2022/08/11 11:48:55;;;;;;;1.70;1.60;;;;;;;32.87;23.14;102252.09;4984340;28;20043;-73
2022/08/11 11:51:22;;;;;;;6.10;1.92;;;;;;;33.08;23.42;102259.91;4987094;28;20473;-74
2022/08/11 11:53:48;;;;;;;5.78;2.05;;;;;;;33.26;23.47;102255.28;4984506;28;20484;-74
2022/08/11 11:56:15;;;;;;;6.28;2.03;;;;;;;33.25;23.80;102251.63;4986598;28;20050;-74
2022/08/11 12:01:26;;;;;;;5.45;2.00;;;;;;;33.08;23.86;102236.34;4982512;28;20126;-74
2022/08/11 12:03:54;;;;;;;4.30;1.98;;;;;;;32.49;23.60;102244.78;4985381;28;20478;-74
2022/08/11 12:06:22;;;;;;;5.22;2.10;;;;;;;32.85;23.14;102234.50;4985373;28;20064;-73
2022/08/11 12:08:50;;;;;;;5.18;2.17;;;;;;;32.78;23.04;102223.56;4983131;28;20050;-73
2022/08/11 12:14:05;;;;;;;7.45;1.88;;;;;;;32.79;22.70;102232.91;4976915;28;20049;-73
2022/08/11 12:16:34;;;;;;;4.72;1.92;;;;;;;33.02;22.98;102238.44;4982275;28;20052;-73
2022/08/11 12:19:00;;;;;;;12.65;2.10;;;;;;;32.93;23.38;102228.09;4986438;28;20042;-73
2022/08/11 12:21:28;;;;;;;5.95;1.92;;;;;;;32.68;22.99;102220.03;4986394;28;20030;-73
2022/08/11 12:29:18;;;;;;;3.83;1.77;;;;;;;33.10;23.00;102217.81;4989313;28;20038;-73
2022/08/11 12:31:45;;;;;;;8.70;2.08;;;;;;;33.10;23.24;102214.13;4981023;28;20033;-73
2022/08/11 12:34:12;;;;;;;2.88;2.03;;;;;;;32.79;22.50;102207.34;4988206;28;20223;-74
2022/08/11 12:36:45;;;;;;;4.30;2.35;;;;;;;32.98;23.04;102208.94;4985856;28;20530;-74
2022/08/11 12:39:17;;;;;;;3.28;2.28;;;;;;;32.73;22.88;102206.59;4982302;28;20034;-73
2022/08/11 12:47:18;;;;;;;13.43;2.63;;;;;;;33.30;22.79;102197.53;4998237;28;20041;-73
2022/08/11 12:52:35;;;;;;;3.45;2.20;;;;;;;33.65;22.53;102193.06;4991167;28;20464;-73
2022/08/11 12:58:14;;;;;;;7.70;2.17;;;;;;;33.17;23.17;102188.97;4986794;28;20033;-73
2022/08/11 12:58:17;;;;;;;2.50;2.00;;;;;;;33.27;22.91;102189.63;4988119;28;20048;-73
2022/08/11 13:06:15;;;;;;;6.53;2.13;;;;;;;33.76;22.69;102186.00;4986820;28;20049;-72
2022/08/11 13:08:41;;;;;;;5.35;2.35;;;;;;;33.55;23.04;102184.78;4980734;28;20034;-72
2022/08/11 13:13:55;;;;;;;6.03;2.30;;;;;;;33.67;22.58;102180.22;4987917;28;20084;-73
2022/08/11 13:16:22;;;;;;;6.57;2.28;;;;;;;34.02;23.12;102170.88;4986853;28;20030;-72
2022/08/11 13:18:49;;;;;;;4.18;2.53;;;;;;;33.70;23.35;102170.19;4983127;28;20038;-72
2022/08/11 13:21:16;;;;;;;4.63;2.15;;;;;;;34.14;23.36;102171.13;4981020;28;20061;-73
2022/08/11 13:23:41;;;;;;;13.38;2.40;;;;;;;33.91;22.79;102168.59;4981263;28;20027;-72
2022/08/11 13:26:07;;;;;;;8.23;2.20;;;;;;;34.15;20.92;102163.44;4981482;28;20053;-72
2022/08/11 13:28:35;;;;;;;9.95;2.15;;;;;;;33.58;21.42;102161.38;4982148;28;20140;-72
2022/08/11 13:31:10;;;;;;;3.00;2.45;;;;;;;33.51;21.73;102161.81;4987232;28;20428;-72
2022/08/11 13:33:42;;;;;;;5.10;2.10;;;;;;;34.03;21.71;102168.88;4984346;28;20034;-72
2022/08/11 13:36:08;;;;;;;5.43;2.13;;;;;;;33.87;21.79;102170.41;4986661;28;20034;-72
2022/08/11 13:38:34;;;;;;;8.90;1.98;;;;;;;34.22;21.82;102155.28;4990050;28;20030;-73
2022/08/11 13:41:00;;;;;;;3.95;2.20;;;;;;;34.35;22.25;102160.13;4987866;28;20362;-73
2022/08/11 13:43:26;;;;;;;7.70;2.10;;;;;;;33.94;22.19;102156.59;4987193;28;20081;-73
2022/08/11 13:46:17;;;;;;;4.78;2.10;;;;;;;34.06;21.05;102151.16;4988870;28;20058;-74
2022/08/11 13:48:40;;;;;;;11.07;2.20;;;;;;;34.01;20.69;102154.13;4987986;28;20070;-73
2022/08/11 13:53:51;;;;;;;5.15;1.80;;;;;;;33.99;20.15;102151.59;4986961;28;20081;-73
2022/08/11 13:56:18;;;;;;;4.80;2.25;;;;;;;33.89;20.97;102151.00;4987117;28;20018;-72
2022/08/11 13:58:44;;;;;;;9.63;1.92;;;;;;;33.72;20.07;102150.84;4988490;28;20034;-73
2022/08/11 14:01:10;;;;;;;4.50;2.22;;;;;;;33.98;20.49;102143.41;4985311;28;20044;-73
2022/08/11 14:03:40;;;;;;;3.17;1.85;;;;;;;33.81;19.90;102137.53;4989485;28;20382;-73
2022/08/11 14:06:08;;;;;;;2.60;1.83;;;;;;;34.34;19.82;102142.19;4988351;28;20053;-73
2022/08/11 14:08:37;;;;;;;6.18;1.90;;;;;;;34.25;20.73;102132.72;4983746;28;20038;-71
2022/08/11 14:13:52;;;;;;;2.03;1.77;;;;;;;34.44;20.00;102133.38;4989058;28;20076;-73
2022/08/11 14:16:29;;;;;;;6.63;2.30;;;;;;;34.53;20.28;102124.88;4989251;28;20039;-72
2022/08/11 14:19:03;;;;;;;4.30;2.03;;;;;;;34.66;20.25;102123.94;4986616;28;20034;-72
2022/08/11 14:24:17;;;;;;;5.80;1.90;;;;;;;34.23;20.10;102117.13;4994194;28;20088;-73
2022/08/11 14:26:47;;;;;;;6.97;1.90;;;;;;;34.37;20.60;102121.63;4989421;28;20038;-74
2022/08/11 14:29:15;;;;;;;3.60;2.10;;;;;;;33.92;20.75;102119.91;4989430;28;20058;-73
2022/08/11 14:31:53;;;;;;;4.22;1.98;;;;;;;34.31;19.91;102113.53;4990233;28;20073;-73
2022/08/11 14:34:21;;;;;;;8.20;1.92;;;;;;;34.18;19.88;102108.72;4990621;28;20107;-73
2022/08/11 14:36:51;;;;;;;5.30;2.45;;;;;;;34.19;20.23;102113.28;4987505;28;20030;-74
2022/08/11 14:39:20;;;;;;;4.57;1.73;;;;;;;34.35;20.13;102108.88;4987364;28;20117;-74
2022/08/11 14:47:20;;;;;;;4.35;2.03;;;;;;;33.89;19.09;102109.19;4987510;28;20516;-73
2022/08/11 14:49:47;;;;;;;6.68;2.30;;;;;;;33.65;18.67;102107.75;4983052;28;20054;-73
2022/08/11 14:52:16;;;;;;;4.25;1.77;;;;;;;33.82;20.08;102102.28;4988133;28;20392;-72
2022/08/11 14:57:42;;;;;;;7.65;2.05;;;;;;;33.44;20.38;102098.06;4950430;28;20725;-73
2022/08/11 15:00:14;;;;;;;3.55;1.90;;;;;;;33.93;20.43;102095.16;4986756;28;20022;-73
2022/08/11 15:05:25;;;;;;;7.22;1.90;;;;;;;33.82;20.87;102085.22;4984083;28;20049;-73
2022/08/11 15:07:53;;;;;;;5.88;2.30;;;;;;;33.97;20.76;102088.50;4986789;28;20331;-73
2022/08/11 15:10:19;;;;;;;4.68;1.85;;;;;;;34.12;20.98;102084.41;4986550;28;20038;-74
2022/08/11 15:12:46;;;;;;;4.47;2.17;;;;;;;33.73;20.55;102081.41;4988999;28;20045;-72
2022/08/11 15:17:59;;;;;;;5.88;1.90;;;;;;;33.64;20.37;102078.50;4984291;28;20065;-72
2022/08/11 15:25:59;;;;;;;5.38;1.95;;;;;;;33.89;20.48;102077.06;4984625;28;20041;-72
2022/08/11 15:45:46;;;;;;;4.35;1.83;;;;;;;33.50;20.86;102065.50;4985487;28;20544;-73
2022/08/11 15:48:08;;;;;;;1.65;1.55;;;;;;;32.81;21.84;102051.72;4983979;28;20497;-74
2022/08/11 15:50:41;;;;;;;1.90;1.80;;;;;;;32.66;20.94;102047.13;4980131;28;20034;-73
2022/08/11 15:53:29;;;;;;;3.05;1.70;;;;;;;32.50;22.26;102050.63;4981820;28;20041;-73
2022/08/11 15:55:55;;;;;;;7.93;2.85;;;;;;;32.43;22.99;102042.50;4984847;28;20042;-73
2022/08/11 16:04:10;;;;;;;3.50;1.80;;;;;;;32.14;22.92;102038.25;4987089;28;20048;-73
2022/08/11 16:06:50;;;;;;;2.50;1.92;;;;;;;32.11;22.64;102033.22;4985950;28;20046;-72
2022/08/11 16:09:54;;;;;;;5.60;1.70;;;;;;;32.00;23.97;102034.56;4982693;28;20092;-72
2022/08/11 16:12:25;;;;;;;3.83;1.90;;;;;;;31.87;23.45;102039.03;4969456;28;20081;-72
2022/08/11 16:17:43;;;;;;;8.13;1.92;;;;;;;31.86;23.33;102030.81;4983209;28;20058;-72
2022/08/11 16:20:11;;;;;;;4.50;2.00;;;;;;;31.64;23.20;102033.44;4978266;28;20034;-73
2022/08/11 16:22:46;;;;;;;4.93;2.13;;;;;;;31.45;23.26;102029.78;4984578;28;20035;-72
2022/08/11 16:25:14;;;;;;;9.35;2.15;;;;;;;31.46;23.76;102034.28;4988113;28;20117;-72
2022/08/11 16:27:46;;;;;;;2.38;1.60;;;;;;;31.37;23.85;102022.00;4983681;28;20039;-72
2022/08/11 16:30:15;;;;;;;1.60;1.50;;;;;;;31.19;23.87;102028.44;4986548;28;20057;-74
2022/08/11 16:32:44;;;;;;;4.00;2.05;;;;;;;31.13;24.05;102024.00;4983292;28;20038;-73
2022/08/11 16:40:47;;;;;;;4.63;2.00;;;;;;;30.96;24.03;102021.72;4985855;28;20081;-72
2022/08/11 16:48:48;;;;;;;;;;;;;;;30.55;31.32;102014.88;4985584;28;20108;-72